Ada, Oklahoma
Current Conditions -  °F | °C
As of 1:15 PM on Saturday 25 Oct 2014 (Local Time) from KADH Reporting Station
Clear Clear  
Wind Chill: 30°   Ceiling: Unl
Heat Index: 31°   Visibility: 10mi
Dew Point: 18°   Wind: 3mph
Humidity: 48%   Direction: 220°SW
Pressure: 30.08"   Gusts: NA
Location:  34.78°N, 96.68°W
Report Text: KADH 251815Z AUTO 22003KT 10SM CLR 30/18 A3008 RMK AO2
Loading
Personal Weather Stations






























Interactive Weather Map
Tropical Storm Tracking
New forecast layout! Learn more

10-Day Weather Forecast

Advertisements
Track Severe Weather on mobile